createdAt,value
2022-12-11T00:04:23.868Z,98385.73
2022-12-11T00:09:27.059Z,98382.05
2022-12-11T00:14:30.119Z,98385.77
2022-12-11T00:19:36.046Z,98383.87
2022-12-11T00:24:39.077Z,98373.87
2022-12-11T00:29:43.565Z,98368.63
2022-12-11T00:34:46.536Z,98370.15
2022-12-11T00:39:55.225Z,98366.33
2022-12-11T00:44:58.242Z,98365.34
2022-12-11T00:50:01.219Z,98367.25
2022-12-11T00:55:05.919Z,98361.70
2022-12-11T01:00:10.809Z,98348.96
2022-12-11T01:05:14.042Z,98347.52
2022-12-11T01:10:26.087Z,98339.20
2022-12-11T01:15:32.750Z,98335.16
2022-12-11T01:20:40.150Z,98323.34
2022-12-11T01:25:44.112Z,98310.64
2022-12-11T01:30:50.117Z,98301.06
2022-12-11T01:35:54.420Z,98300.26
2022-12-11T01:40:57.440Z,98297.65
2022-12-11T01:46:00.881Z,98293.23
2022-12-11T01:51:05.933Z,98296.46
2022-12-11T01:56:10.404Z,98296.23
2022-12-11T02:01:26.323Z,98292.44
2022-12-11T02:06:52.157Z,98286.55
2022-12-11T02:12:14.018Z,98284.23
2022-12-11T02:17:37.772Z,98283.73
2022-12-11T02:23:26.458Z,98279.59
2022-12-11T02:28:56.122Z,98277.98
2022-12-11T02:34:08.734Z,98275.00
2022-12-11T02:39:15.968Z,98274.31
2022-12-11T02:44:27.749Z,98270.07
2022-12-11T02:49:34.403Z,98271.14
2022-12-11T02:54:39.694Z,98270.64
2022-12-11T02:59:45.599Z,98264.84
2022-12-11T03:04:48.870Z,98260.73
2022-12-11T03:09:52.524Z,98256.58
2022-12-11T03:14:57.893Z,98250.95
2022-12-11T03:20:20.495Z,98251.64
2022-12-11T03:25:36.058Z,98248.75
2022-12-11T03:30:40.384Z,98250.90
2022-12-11T03:35:49.994Z,98244.55
2022-12-11T03:40:58.321Z,98243.17
2022-12-11T03:46:02.110Z,98245.55
2022-12-11T03:51:07.606Z,98243.20
2022-12-11T03:56:14.124Z,98241.88
2022-12-11T04:01:17.202Z,98233.20
2022-12-11T04:06:20.223Z,98232.00
2022-12-11T04:11:35.589Z,98234.61
2022-12-11T04:16:38.868Z,98234.83
2022-12-11T04:22:00.922Z,98230.45
2022-12-11T04:27:04.184Z,98213.70
2022-12-11T04:32:07.327Z,98201.03
2022-12-11T04:37:10.342Z,98190.66
2022-12-11T04:42:13.353Z,98182.91
2022-12-11T04:47:16.391Z,98175.31
2022-12-11T04:52:19.467Z,98166.71
2022-12-11T04:57:22.645Z,98158.24
2022-12-11T05:02:26.756Z,98148.26
2022-12-11T05:07:29.775Z,98148.11
2022-12-11T05:12:33.502Z,98138.45
2022-12-11T05:17:36.525Z,98134.16
2022-12-11T05:22:39.562Z,98132.88
2022-12-11T05:27:42.599Z,98137.11
2022-12-11T05:32:45.641Z,98142.63
2022-12-11T05:37:48.642Z,98140.20
2022-12-11T05:42:51.946Z,98138.48
2022-12-11T05:47:56.156Z,98137.68
2022-12-11T05:52:59.181Z,98140.16
2022-12-11T05:58:02.233Z,98144.14
2022-12-11T06:03:06.327Z,98147.38
2022-12-11T06:08:09.605Z,98142.15
2022-12-11T06:13:13.117Z,98133.38
2022-12-11T06:18:16.185Z,98133.55
2022-12-11T06:23:19.179Z,98130.42
2022-12-11T06:28:22.174Z,98127.67
2022-12-11T06:33:26.026Z,98121.08
2022-12-11T06:38:29.420Z,98108.91
2022-12-11T06:43:37.051Z,98107.52
2022-12-11T06:48:42.386Z,98103.05
2022-12-11T06:53:46.142Z,98101.86
2022-12-11T06:58:49.767Z,98092.78
2022-12-11T07:03:54.899Z,98088.86
2022-12-11T07:08:57.889Z,98089.41
2022-12-11T07:14:01.199Z,98089.22
2022-12-11T07:19:04.973Z,98085.02
2022-12-11T07:24:08.938Z,98084.27
2022-12-11T07:29:11.989Z,98078.98
2022-12-11T07:34:15.039Z,98078.61
2022-12-11T07:39:18.032Z,98080.48
2022-12-11T07:44:21.147Z,98082.38
2022-12-11T07:49:24.245Z,98075.94
2022-12-11T07:54:27.268Z,98068.95
2022-12-11T07:59:30.348Z,98063.42
2022-12-11T08:04:33.333Z,98055.34
2022-12-11T08:09:36.328Z,98062.83
2022-12-11T08:14:39.362Z,98059.15
2022-12-11T08:19:42.333Z,98064.41
2022-12-11T08:24:47.383Z,98060.60
2022-12-11T08:29:50.426Z,98053.56
2022-12-11T08:34:53.429Z,98055.73
2022-12-11T08:39:56.424Z,98053.91
2022-12-11T08:44:59.823Z,98045.54
2022-12-11T08:50:04.141Z,98049.64
2022-12-11T08:55:08.773Z,98038.65
2022-12-11T09:00:13.581Z,98035.27
2022-12-11T09:05:16.812Z,98031.84
2022-12-11T09:10:20.083Z,98029.48
2022-12-11T09:15:23.291Z,98023.02
2022-12-11T09:20:26.297Z,98012.45
2022-12-11T09:25:29.281Z,98009.41
2022-12-11T09:30:32.352Z,98005.77
2022-12-11T09:35:35.401Z,97997.67
2022-12-11T09:40:43.539Z,97991.06
2022-12-11T09:45:50.232Z,97984.16
2022-12-11T09:50:55.536Z,97976.35
2022-12-11T09:56:23.571Z,97968.24
2022-12-11T10:02:17.738Z,97963.50
2022-12-11T10:07:33.822Z,97956.38
2022-12-11T10:12:48.835Z,97963.00
2022-12-11T10:17:59.886Z,97955.75
2022-12-11T10:23:19.753Z,97949.98
2022-12-11T10:28:23.232Z,97944.89
2022-12-11T11:19:03.197Z,97888.08
2022-12-11T11:24:06.505Z,97881.45
2022-12-11T11:29:34.694Z,97881.86
2022-12-11T11:34:40.768Z,97884.77
2022-12-11T11:39:45.308Z,97887.79
2022-12-11T11:45:12.250Z,97884.09
2022-12-11T11:50:22.619Z,97890.02
2022-12-11T11:56:12.528Z,97884.73
2022-12-11T12:01:19.521Z,97885.17
2022-12-11T12:06:39.756Z,97879.86
2022-12-11T12:12:33.807Z,97874.52
2022-12-11T12:17:56.689Z,97875.53
2022-12-11T12:23:17.536Z,97878.89
2022-12-11T12:28:53.831Z,97881.67
2022-12-11T12:34:31.195Z,97876.38
2022-12-11T12:40:19.870Z,97868.88
2022-12-11T12:45:35.173Z,97865.56
2022-12-11T12:50:46.550Z,97876.61
2022-12-11T12:55:50.274Z,97881.13
2022-12-11T13:00:54.073Z,97875.56
2022-12-11T13:06:01.325Z,97878.69
2022-12-11T13:11:10.011Z,97874.15
2022-12-11T13:16:16.204Z,97880.44
2022-12-11T13:21:41.025Z,97893.38
2022-12-11T13:26:44.989Z,97888.23
2022-12-11T13:32:00.628Z,97880.83
2022-12-11T13:37:05.404Z,97876.55
2022-12-11T13:42:39.431Z,97869.75
2022-12-11T13:47:42.613Z,97857.11
2022-12-11T13:53:00.632Z,97850.10
2022-12-11T13:58:03.639Z,97847.95
2022-12-11T14:03:09.857Z,97846.55
2022-12-11T14:08:20.729Z,97849.49
2022-12-11T14:13:30.225Z,97859.88
2022-12-11T14:18:36.806Z,97874.27
2022-12-11T14:23:39.797Z,97888.20
2022-12-11T14:28:43.681Z,97894.11
2022-12-11T14:33:54.184Z,97887.20
2022-12-11T14:39:14.130Z,97885.69
2022-12-11T14:44:22.358Z,97882.34
2022-12-11T14:49:25.338Z,97871.69
2022-12-11T14:54:41.606Z,97871.55
2022-12-11T14:59:48.285Z,97876.14
2022-12-11T15:05:18.805Z,97882.98
2022-12-11T15:10:32.501Z,97891.05
2022-12-11T15:15:45.675Z,97902.63
2022-12-11T15:21:03.576Z,97898.05
2022-12-11T15:26:06.859Z,97896.20
2022-12-11T15:31:31.511Z,97890.29
2022-12-11T15:36:36.913Z,97891.77
2022-12-11T15:41:43.384Z,97891.55
2022-12-11T15:46:46.452Z,97897.52
2022-12-11T15:51:49.451Z,97899.46
2022-12-11T15:56:52.424Z,97891.98
2022-12-11T16:01:55.500Z,97887.71
2022-12-11T16:06:58.528Z,97889.69
2022-12-11T16:12:01.798Z,97890.09
2022-12-11T16:17:07.330Z,97887.16
2022-12-11T16:22:12.314Z,97895.32
2022-12-11T16:27:21.458Z,97909.23
2022-12-11T16:32:26.103Z,97909.64
2022-12-11T16:37:29.221Z,97910.52
2022-12-11T16:42:32.979Z,97913.38
2022-12-11T16:47:36.498Z,97912.69
2022-12-11T16:52:39.918Z,97905.61
2022-12-11T16:57:42.978Z,97914.10
2022-12-11T17:02:46.012Z,97922.37
2022-12-11T17:07:49.117Z,97933.14
2022-12-11T17:12:52.174Z,97937.69
2022-12-11T17:17:55.200Z,97944.80
2022-12-11T17:22:58.699Z,97945.98
2022-12-11T17:28:01.701Z,97936.19
2022-12-11T17:33:04.871Z,97936.56
2022-12-11T17:38:08.016Z,97931.17
2022-12-11T17:43:12.203Z,97926.98
2022-12-11T17:48:16.226Z,97919.10
2022-12-11T17:53:20.808Z,97905.67
2022-12-11T17:58:23.831Z,97899.21
2022-12-11T18:03:28.792Z,97901.00
2022-12-11T18:08:33.074Z,97907.94
2022-12-11T18:13:36.420Z,97916.42
2022-12-11T18:18:40.217Z,97918.39
2022-12-11T18:23:44.364Z,97921.51
2022-12-11T18:28:51.242Z,97914.08
2022-12-11T18:33:54.335Z,97915.76
2022-12-11T18:38:57.418Z,97917.44
2022-12-11T18:44:05.175Z,97921.65
2022-12-11T18:49:11.169Z,97928.50
2022-12-11T18:54:14.212Z,97931.35
2022-12-11T18:59:17.486Z,97923.06
2022-12-11T19:04:20.611Z,97921.26
2022-12-11T19:09:23.699Z,97924.20
2022-12-11T19:14:26.736Z,97937.33
2022-12-11T19:19:29.775Z,97948.81
2022-12-11T19:24:32.848Z,97949.61
2022-12-11T19:29:36.070Z,97947.84
2022-12-11T19:34:39.442Z,97949.65
2022-12-11T19:39:42.465Z,97952.83
2022-12-11T19:44:45.520Z,97945.05
2022-12-11T19:49:49.084Z,97933.61
2022-12-11T19:54:52.166Z,97935.98
2022-12-11T19:59:57.385Z,97938.50
2022-12-11T20:05:00.623Z,97937.04
2022-12-11T20:10:03.925Z,97931.04
2022-12-11T20:15:07.537Z,97933.08
2022-12-11T20:20:11.995Z,97938.48
2022-12-11T20:25:15.074Z,97940.59
2022-12-11T20:30:19.470Z,97937.36
2022-12-11T20:35:22.454Z,97934.82
2022-12-11T20:40:25.476Z,97929.56
2022-12-11T20:45:28.561Z,97926.16
2022-12-11T20:50:31.621Z,97923.70
2022-12-11T20:55:34.696Z,97922.19
2022-12-11T21:00:39.673Z,97916.97
2022-12-11T21:05:45.295Z,97911.68
2022-12-11T21:10:48.313Z,97911.59
2022-12-11T21:15:52.858Z,97916.36
2022-12-11T21:20:57.583Z,97914.25
2022-12-11T21:26:00.992Z,97918.41
2022-12-11T21:31:08.255Z,97924.53
2022-12-11T21:36:13.717Z,97929.91
2022-12-11T21:41:22.379Z,97935.34
2022-12-11T21:46:28.800Z,97952.27
2022-12-11T21:51:37.948Z,97957.17
2022-12-11T21:56:44.424Z,97951.42
2022-12-11T22:01:47.429Z,97949.14
2022-12-11T22:06:50.464Z,97950.23
2022-12-11T22:11:58.167Z,97951.80
2022-12-11T22:17:01.878Z,97949.35
2022-12-11T22:22:04.909Z,97944.44
2022-12-11T22:27:07.968Z,97948.73
2022-12-11T22:32:10.961Z,97951.96
2022-12-11T22:37:13.955Z,97946.53
2022-12-11T22:42:17.598Z,97937.59
2022-12-11T22:47:20.596Z,97930.32
2022-12-11T22:52:23.577Z,97932.77
2022-12-11T22:57:26.583Z,97933.79
2022-12-11T23:02:29.630Z,97934.52
2022-12-11T23:07:33.056Z,97929.07
2022-12-11T23:12:36.974Z,97928.89
2022-12-11T23:17:39.833Z,97932.06
2022-12-11T23:22:42.830Z,97945.60
2022-12-11T23:27:45.845Z,97950.04
2022-12-11T23:32:48.858Z,97949.76
2022-12-11T23:37:51.900Z,97943.37
2022-12-11T23:42:54.901Z,97933.19
2022-12-11T23:47:57.867Z,97934.95
2022-12-11T23:53:00.889Z,97941.69
2022-12-11T23:58:04.505Z,97944.73
